
<gpx xmlns="http://www.topografix.com/GPX/1/1" xmlns:gpxx="http://www.garmin.com/xmlschemas/GpxExtensions/v3" xmlns:wptx1="http://www.garmin.com/xmlschemas/WaypointExtension/v1" xmlns:xsi="http://www.w3.org/2001/XMLSchema-instance" version="1.1" creator="Adze - https://getadze.com/" xsi:schemaLocation="http://www.topografix.com/GPX/1/1 http://www.topografix.com/GPX/1/1/gpx.xsd http://www.garmin.com/xmlschemas/GpxExtensions/v3 http://www8.garmin.com/xmlschemas/GpxExtensionsv3.xsd http://www.garmin.com/xmlschemas/WaypointExtension/v1 http://www8.garmin.com/xmlschemas/WaypointExtensionv1.xsd">
    <metadata>
        <name>Untitled Document</name>
        <link href="http://www.garmin.com"></link>
        <time>2018-03-05T04:38:40.318Z</time>
    </metadata>
    <wpt lon="99.958275" lat="12.562658">
        <ele>-1.796631</ele>
        <name>Grand Hotel</name>
        <sym>Waypoint</sym>
        <type>user</type>
        <extensions>
            <gpxx:WaypointExtension>
                <gpxx:DisplayMode>SymbolAndName</gpxx:DisplayMode>
            </gpxx:WaypointExtension>
            <wptx1:WaypointExtension>
                <wptx1:DisplayMode>SymbolAndName</wptx1:DisplayMode>
            </wptx1:WaypointExtension>
        </extensions>
    </wpt>
    <trk>
        <name>March 2005 - Sunday</name>
        <extensions>
            <gpxx:TrackExtension>
                <gpxx:DisplayColor>DarkGray</gpxx:DisplayColor>
            </gpxx:TrackExtension>
        </extensions>
        <trkseg>
            <trkpt lon="99.958205" lat="12.562652">
                <ele>34.744873</ele>
                <time>2005-03-27T03:32:37Z</time>
            </trkpt>
            <trkpt lon="99.958227" lat="12.562652">
                <ele>34.744873</ele>
                <time>2005-03-27T03:33:00Z</time>
            </trkpt>
            <trkpt lon="99.958162" lat="12.562759">
                <ele>34.744873</ele>
                <time>2005-03-27T03:33:17Z</time>
            </trkpt>
            <trkpt lon="99.958913" lat="12.562973">
                <ele>34.744873</ele>
                <time>2005-03-27T03:33:37Z</time>
            </trkpt>
            <trkpt lon="99.959171" lat="12.563531">
                <ele>34.744873</ele>
                <time>2005-03-27T03:33:53Z</time>
            </trkpt>
            <trkpt lon="99.957690" lat="12.563167">
                <ele>34.744873</ele>
                <time>2005-03-27T03:34:23Z</time>
            </trkpt>
            <trkpt lon="99.957111" lat="12.562995">
                <ele>34.744873</ele>
                <time>2005-03-27T03:34:36Z</time>
            </trkpt>
            <trkpt lon="99.956982" lat="12.563038">
                <ele>34.744873</ele>
                <time>2005-03-27T03:34:40Z</time>
            </trkpt>
            <trkpt lon="99.956124" lat="12.562094">
                <ele>12.634399</ele>
                <time>2005-03-27T03:46:29Z</time>
            </trkpt>
            <trkpt lon="99.956360" lat="12.561171">
                <ele>9.269897</ele>
                <time>2005-03-27T03:46:48Z</time>
            </trkpt>
            <trkpt lon="99.956274" lat="12.561021">
                <ele>9.750610</ele>
                <time>2005-03-27T03:46:53Z</time>
            </trkpt>
            <trkpt lon="99.955587" lat="12.560828">
                <ele>10.231201</ele>
                <time>2005-03-27T03:47:11Z</time>
            </trkpt>
            <trkpt lon="99.954257" lat="12.560549">
                <ele>11.192505</ele>
                <time>2005-03-27T03:47:39Z</time>
            </trkpt>
            <trkpt lon="99.953291" lat="12.560313">
                <ele>10.231201</ele>
                <time>2005-03-27T03:47:59Z</time>
            </trkpt>
            <trkpt lon="99.953163" lat="12.560270">
                <ele>10.231201</ele>
                <time>2005-03-27T03:48:02Z</time>
            </trkpt>
            <trkpt lon="99.952991" lat="12.560077">
                <ele>10.711792</ele>
                <time>2005-03-27T03:48:08Z</time>
            </trkpt>
            <trkpt lon="99.952862" lat="12.558982">
                <ele>14.076416</ele>
                <time>2005-03-27T03:48:29Z</time>
            </trkpt>
            <trkpt lon="99.952755" lat="12.557802">
                <ele>15.037720</ele>
                <time>2005-03-27T03:48:52Z</time>
            </trkpt>
            <trkpt lon="99.952669" lat="12.556686">
                <ele>18.883057</ele>
                <time>2005-03-27T03:49:14Z</time>
            </trkpt>
            <trkpt lon="99.952626" lat="12.555528">
                <ele>20.805664</ele>
                <time>2005-03-27T03:49:36Z</time>
            </trkpt>
            <trkpt lon="99.952583" lat="12.554691">
                <ele>17.921753</ele>
                <time>2005-03-27T03:49:53Z</time>
            </trkpt>
            <trkpt lon="99.952562" lat="12.554433">
                <ele>16.479736</ele>
                <time>2005-03-27T03:49:58Z</time>
            </trkpt>
            <trkpt lon="99.952691" lat="12.554219">
                <ele>16.479736</ele>
                <time>2005-03-27T03:50:07Z</time>
            </trkpt>
            <trkpt lon="99.952798" lat="12.554219">
                <ele>15.518433</ele>
                <time>2005-03-27T03:50:10Z</time>
            </trkpt>
            <trkpt lon="99.953570" lat="12.554176">
                <ele>13.115112</ele>
                <time>2005-03-27T03:50:27Z</time>
            </trkpt>
            <trkpt lon="99.954021" lat="12.554154">
                <ele>12.153809</ele>
                <time>2005-03-27T03:50:37Z</time>
            </trkpt>
            <trkpt lon="99.954107" lat="12.554069">
                <ele>11.673218</ele>
                <time>2005-03-27T03:50:41Z</time>
            </trkpt>
            <trkpt lon="99.953957" lat="12.553725">
                <ele>10.711792</ele>
                <time>2005-03-27T03:50:51Z</time>
            </trkpt>
            <trkpt lon="99.953957" lat="12.553425">
                <ele>10.231201</ele>
                <time>2005-03-27T03:50:58Z</time>
            </trkpt>
            <trkpt lon="99.953957" lat="12.552459">
                <ele>9.750610</ele>
                <time>2005-03-27T03:51:18Z</time>
            </trkpt>
            <trkpt lon="99.954042" lat="12.551644">
                <ele>10.711792</ele>
                <time>2005-03-27T03:51:36Z</time>
            </trkpt>
            <trkpt lon="99.954214" lat="12.550743">
                <ele>10.711792</ele>
                <time>2005-03-27T03:51:56Z</time>
            </trkpt>
            <trkpt lon="99.954278" lat="12.550399">
                <ele>10.231201</ele>
                <time>2005-03-27T03:52:05Z</time>
            </trkpt>
            <trkpt lon="99.954472" lat="12.550421">
                <ele>9.750610</ele>
                <time>2005-03-27T03:52:12Z</time>
            </trkpt>
            <trkpt lon="99.955351" lat="12.550507">
                <ele>9.269897</ele>
                <time>2005-03-27T03:52:30Z</time>
            </trkpt>
            <trkpt lon="99.956253" lat="12.550635">
                <ele>8.308594</ele>
                <time>2005-03-27T03:52:48Z</time>
            </trkpt>
            <trkpt lon="99.956982" lat="12.550764">
                <ele>9.750610</ele>
                <time>2005-03-27T03:53:05Z</time>
            </trkpt>
            <trkpt lon="99.958119" lat="12.551172">
                <ele>8.789185</ele>
                <time>2005-03-27T03:53:29Z</time>
            </trkpt>
            <trkpt lon="99.958441" lat="12.551258">
                <ele>9.750610</ele>
                <time>2005-03-27T03:53:36Z</time>
            </trkpt>
            <trkpt lon="99.958785" lat="12.551086">
                <ele>8.308594</ele>
                <time>2005-03-27T03:53:46Z</time>
            </trkpt>
            <trkpt lon="99.958935" lat="12.550635">
                <ele>10.711792</ele>
                <time>2005-03-27T03:53:59Z</time>
            </trkpt>
            <trkpt lon="99.959021" lat="12.550292">
                <ele>10.711792</ele>
                <time>2005-03-27T03:54:07Z</time>
            </trkpt>
            <trkpt lon="99.959235" lat="12.549562">
                <ele>13.115112</ele>
                <time>2005-03-27T03:54:24Z</time>
            </trkpt>
            <trkpt lon="99.959257" lat="12.549477">
                <ele>14.076416</ele>
                <time>2005-03-27T03:54:26Z</time>
            </trkpt>
            <trkpt lon="99.959385" lat="12.548919">
                <ele>14.076416</ele>
                <time>2005-03-27T03:54:38Z</time>
            </trkpt>
            <trkpt lon="99.959557" lat="12.548232">
                <ele>14.076416</ele>
                <time>2005-03-27T03:54:54Z</time>
            </trkpt>
            <trkpt lon="99.959643" lat="12.547953">
                <ele>14.557007</ele>
                <time>2005-03-27T03:55:01Z</time>
            </trkpt>
            <trkpt lon="99.959815" lat="12.547245">
                <ele>14.557007</ele>
                <time>2005-03-27T03:55:17Z</time>
            </trkpt>
            <trkpt lon="99.959965" lat="12.546730">
                <ele>14.076416</ele>
                <time>2005-03-27T03:55:29Z</time>
            </trkpt>
            <trkpt lon="99.960158" lat="12.545915">
                <ele>15.518433</ele>
                <time>2005-03-27T03:55:48Z</time>
            </trkpt>
            <trkpt lon="99.960244" lat="12.545657">
                <ele>15.037720</ele>
                <time>2005-03-27T03:55:54Z</time>
            </trkpt>
            <trkpt lon="99.960501" lat="12.544734">
                <ele>15.518433</ele>
                <time>2005-03-27T03:56:14Z</time>
            </trkpt>
            <trkpt lon="99.960694" lat="12.543898">
                <ele>14.076416</ele>
                <time>2005-03-27T03:56:32Z</time>
            </trkpt>
            <trkpt lon="99.960952" lat="12.542953">
                <ele>13.595825</ele>
                <time>2005-03-27T03:56:52Z</time>
            </trkpt>
            <trkpt lon="99.961166" lat="12.542117">
                <ele>12.634399</ele>
                <time>2005-03-27T03:57:10Z</time>
            </trkpt>
            <trkpt lon="99.961402" lat="12.541194">
                <ele>12.634399</ele>
                <time>2005-03-27T03:57:29Z</time>
            </trkpt>
            <trkpt lon="99.961510" lat="12.540829">
                <ele>13.595825</ele>
                <time>2005-03-27T03:57:42Z</time>
            </trkpt>
            <trkpt lon="99.961574" lat="12.540658">
                <ele>14.076416</ele>
                <time>2005-03-27T03:58:06Z</time>
            </trkpt>
            <trkpt lon="99.961617" lat="12.540550">
                <ele>12.153809</ele>
                <time>2005-03-27T03:58:20Z</time>
            </trkpt>
            <trkpt lon="99.961660" lat="12.540336">
                <ele>12.634399</ele>
                <time>2005-03-27T03:58:31Z</time>
            </trkpt>
            <trkpt lon="99.961767" lat="12.539842">
                <ele>9.750610</ele>
                <time>2005-03-27T03:58:47Z</time>
            </trkpt>
            <trkpt lon="99.961917" lat="12.539241">
                <ele>10.231201</ele>
                <time>2005-03-27T03:59:02Z</time>
            </trkpt>
            <trkpt lon="99.961982" lat="12.538683">
                <ele>9.750610</ele>
                <time>2005-03-27T03:59:18Z</time>
            </trkpt>
            <trkpt lon="99.962132" lat="12.538168">
                <ele>9.750610</ele>
                <time>2005-03-27T03:59:48Z</time>
            </trkpt>
            <trkpt lon="99.961960" lat="12.538898">
                <ele>9.750610</ele>
                <time>2005-03-27T04:01:05Z</time>
            </trkpt>
            <trkpt lon="99.961982" lat="12.538683">
                <ele>13.115112</ele>
                <time>2005-03-27T04:01:13Z</time>
            </trkpt>
            <trkpt lon="99.961982" lat="12.538683">
                <ele>10.231201</ele>
                <time>2005-03-27T04:01:17Z</time>
            </trkpt>
            <trkpt lon="99.961896" lat="12.539155">
                <ele>6.866455</ele>
                <time>2005-03-27T04:01:36Z</time>
            </trkpt>
            <trkpt lon="99.961789" lat="12.539628">
                <ele>6.866455</ele>
                <time>2005-03-27T04:01:54Z</time>
            </trkpt>
            <trkpt lon="99.961596" lat="12.540400">
                <ele>7.347168</ele>
                <time>2005-03-27T04:02:16Z</time>
            </trkpt>
            <trkpt lon="99.961574" lat="12.540507">
                <ele>6.866455</ele>
                <time>2005-03-27T04:02:19Z</time>
            </trkpt>
            <trkpt lon="99.961596" lat="12.540529">
                <ele>5.905273</ele>
                <time>2005-03-27T04:02:27Z</time>
            </trkpt>
            <trkpt lon="99.961596" lat="12.540486">
                <ele>5.905273</ele>
                <time>2005-03-27T04:02:31Z</time>
            </trkpt>
            <trkpt lon="99.961660" lat="12.540164">
                <ele>4.943848</ele>
                <time>2005-03-27T04:02:43Z</time>
            </trkpt>
            <trkpt lon="99.961767" lat="12.539821">
                <ele>5.905273</ele>
                <time>2005-03-27T04:02:51Z</time>
            </trkpt>
            <trkpt lon="99.961960" lat="12.539005">
                <ele>6.866455</ele>
                <time>2005-03-27T04:03:09Z</time>
            </trkpt>
            <trkpt lon="99.961960" lat="12.538705">
                <ele>6.866455</ele>
                <time>2005-03-27T04:03:22Z</time>
            </trkpt>
            <trkpt lon="99.961681" lat="12.538576">
                <ele>7.827881</ele>
                <time>2005-03-27T04:03:34Z</time>
            </trkpt>
            <trkpt lon="99.961424" lat="12.538555">
                <ele>7.827881</ele>
                <time>2005-03-27T04:03:41Z</time>
            </trkpt>
            <trkpt lon="99.960501" lat="12.538319">
                <ele>9.269897</ele>
                <time>2005-03-27T04:04:00Z</time>
            </trkpt>
            <trkpt lon="99.960458" lat="12.538297">
                <ele>8.789185</ele>
                <time>2005-03-27T04:04:01Z</time>
            </trkpt>
            <trkpt lon="99.960222" lat="12.538168">
                <ele>8.789185</ele>
                <time>2005-03-27T04:04:06Z</time>
            </trkpt>
            <trkpt lon="99.959664" lat="12.537503">
                <ele>9.269897</ele>
                <time>2005-03-27T04:04:23Z</time>
            </trkpt>
            <trkpt lon="99.959471" lat="12.536709">
                <ele>9.750610</ele>
                <time>2005-03-27T04:04:40Z</time>
            </trkpt>
            <trkpt lon="99.959557" lat="12.536087">
                <ele>9.269897</ele>
                <time>2005-03-27T04:04:53Z</time>
            </trkpt>
            <trkpt lon="99.959600" lat="12.535958">
                <ele>9.750610</ele>
                <time>2005-03-27T04:04:56Z</time>
            </trkpt>
            <trkpt lon="99.959514" lat="12.535872">
                <ele>9.750610</ele>
                <time>2005-03-27T04:05:00Z</time>
            </trkpt>
            <trkpt lon="99.958463" lat="12.535615">
                <ele>9.269897</ele>
                <time>2005-03-27T04:05:22Z</time>
            </trkpt>
            <trkpt lon="99.957626" lat="12.535465">
                <ele>8.789185</ele>
                <time>2005-03-27T04:05:39Z</time>
            </trkpt>
            <trkpt lon="99.956639" lat="12.535615">
                <ele>8.789185</ele>
                <time>2005-03-27T04:05:57Z</time>
            </trkpt>
            <trkpt lon="99.955416" lat="12.535830">
                <ele>10.231201</ele>
                <time>2005-03-27T04:06:21Z</time>
            </trkpt>
            <trkpt lon="99.954536" lat="12.535830">
                <ele>11.192505</ele>
                <time>2005-03-27T04:06:38Z</time>
            </trkpt>
            <trkpt lon="99.953377" lat="12.535529">
                <ele>12.634399</ele>
                <time>2005-03-27T04:07:00Z</time>
            </trkpt>
            <trkpt lon="99.952304" lat="12.535250">
                <ele>13.595825</ele>
                <time>2005-03-27T04:07:21Z</time>
            </trkpt>
            <trkpt lon="99.951274" lat="12.534971">
                <ele>14.557007</ele>
                <time>2005-03-27T04:07:43Z</time>
            </trkpt>
            <trkpt lon="99.951124" lat="12.534950">
                <ele>13.595825</ele>
                <time>2005-03-27T04:07:51Z</time>
            </trkpt>
            <trkpt lon="99.951103" lat="12.534928">
                <ele>13.595825</ele>
                <time>2005-03-27T04:08:08Z</time>
            </trkpt>
            <trkpt lon="99.951060" lat="12.534928">
                <ele>15.037720</ele>
                <time>2005-03-27T04:09:10Z</time>
            </trkpt>
            <trkpt lon="99.950674" lat="12.534842">
                <ele>13.595825</ele>
                <time>2005-03-27T04:09:22Z</time>
            </trkpt>
            <trkpt lon="99.950588" lat="12.534821">
                <ele>13.595825</ele>
                <time>2005-03-27T04:09:24Z</time>
            </trkpt>
            <trkpt lon="99.949837" lat="12.534521">
                <ele>15.518433</ele>
                <time>2005-03-27T04:09:43Z</time>
            </trkpt>
            <trkpt lon="99.949043" lat="12.533920">
                <ele>18.402344</ele>
                <time>2005-03-27T04:10:06Z</time>
            </trkpt>
            <trkpt lon="99.948292" lat="12.533319">
                <ele>19.844360</ele>
                <time>2005-03-27T04:10:27Z</time>
            </trkpt>
            <trkpt lon="99.947798" lat="12.532933">
                <ele>20.324951</ele>
                <time>2005-03-27T04:10:41Z</time>
            </trkpt>
            <trkpt lon="99.947369" lat="12.532547">
                <ele>20.805664</ele>
                <time>2005-03-27T04:10:56Z</time>
            </trkpt>
            <trkpt lon="99.946918" lat="12.532182">
                <ele>20.324951</ele>
                <time>2005-03-27T04:11:11Z</time>
            </trkpt>
            <trkpt lon="99.946275" lat="12.531667">
                <ele>20.805664</ele>
                <time>2005-03-27T04:11:30Z</time>
            </trkpt>
            <trkpt lon="99.945331" lat="12.530894">
                <ele>21.766968</ele>
                <time>2005-03-27T04:11:55Z</time>
            </trkpt>
            <trkpt lon="99.944429" lat="12.530186">
                <ele>23.689575</ele>
                <time>2005-03-27T04:12:16Z</time>
            </trkpt>
            <trkpt lon="99.943593" lat="12.529500">
                <ele>26.092896</ele>
                <time>2005-03-27T04:12:37Z</time>
            </trkpt>
            <trkpt lon="99.942799" lat="12.528877">
                <ele>27.534912</ele>
                <time>2005-03-27T04:12:57Z</time>
            </trkpt>
            <trkpt lon="99.942713" lat="12.528791">
                <ele>27.054321</ele>
                <time>2005-03-27T04:13:00Z</time>
            </trkpt>
            <trkpt lon="99.942820" lat="12.528534">
                <ele>27.054321</ele>
                <time>2005-03-27T04:13:07Z</time>
            </trkpt>
            <trkpt lon="99.943056" lat="12.527997">
                <ele>27.054321</ele>
                <time>2005-03-27T04:13:23Z</time>
            </trkpt>
            <trkpt lon="99.943163" lat="12.527912">
                <ele>25.612305</ele>
                <time>2005-03-27T04:13:34Z</time>
            </trkpt>
            <trkpt lon="99.943163" lat="12.527912">
                <ele>24.651001</ele>
                <time>2005-03-27T04:13:49Z</time>
            </trkpt>
            <trkpt lon="99.943163" lat="12.527912">
                <ele>24.651001</ele>
                <time>2005-03-27T04:13:52Z</time>
            </trkpt>
            <trkpt lon="99.943078" lat="12.527847">
                <ele>24.651001</ele>
                <time>2005-03-27T04:14:03Z</time>
            </trkpt>
            <trkpt lon="99.943056" lat="12.527761">
                <ele>27.054321</ele>
                <time>2005-03-27T04:14:14Z</time>
            </trkpt>
            <trkpt lon="99.942949" lat="12.527633">
                <ele>27.534912</ele>
                <time>2005-03-27T04:14:28Z</time>
            </trkpt>
            <trkpt lon="99.942584" lat="12.527697">
                <ele>27.534912</ele>
                <time>2005-03-27T04:14:42Z</time>
            </trkpt>
            <trkpt lon="99.942391" lat="12.527761">
                <ele>28.015503</ele>
                <time>2005-03-27T04:14:49Z</time>
            </trkpt>
            <trkpt lon="99.942369" lat="12.527611">
                <ele>28.976929</ele>
                <time>2005-03-27T04:15:00Z</time>
            </trkpt>
            <trkpt lon="99.942369" lat="12.527525">
                <ele>31.380127</ele>
                <time>2005-03-27T04:15:17Z</time>
            </trkpt>
            <trkpt lon="99.942305" lat="12.527525">
                <ele>31.380127</ele>
                <time>2005-03-27T04:16:03Z</time>
            </trkpt>
            <trkpt lon="99.942241" lat="12.527483">
                <ele>29.457520</ele>
                <time>2005-03-27T04:16:22Z</time>
            </trkpt>
            <trkpt lon="99.942262" lat="12.527483">
                <ele>25.131714</ele>
                <time>2005-03-27T04:17:10Z</time>
            </trkpt>
            <trkpt lon="99.942176" lat="12.527568">
                <ele>25.131714</ele>
                <time>2005-03-27T04:17:17Z</time>
            </trkpt>
            <trkpt lon="99.942176" lat="12.527676">
                <ele>25.131714</ele>
                <time>2005-03-27T04:17:22Z</time>
            </trkpt>
            <trkpt lon="99.942005" lat="12.528083">
                <ele>26.573608</ele>
                <time>2005-03-27T04:17:34Z</time>
            </trkpt>
            <trkpt lon="99.941983" lat="12.528126">
                <ele>26.573608</ele>
                <time>2005-03-27T04:17:35Z</time>
            </trkpt>
            <trkpt lon="99.941876" lat="12.528126">
                <ele>27.054321</ele>
                <time>2005-03-27T04:17:39Z</time>
            </trkpt>
            <trkpt lon="99.941297" lat="12.527654">
                <ele>29.457520</ele>
                <time>2005-03-27T04:17:57Z</time>
            </trkpt>
            <trkpt lon="99.940610" lat="12.527139">
                <ele>29.457520</ele>
                <time>2005-03-27T04:18:17Z</time>
            </trkpt>
            <trkpt lon="99.939902" lat="12.526603">
                <ele>32.341553</ele>
                <time>2005-03-27T04:18:39Z</time>
            </trkpt>
            <trkpt lon="99.939129" lat="12.526002">
                <ele>32.822266</ele>
                <time>2005-03-27T04:19:01Z</time>
            </trkpt>
            <trkpt lon="99.938915" lat="12.525830">
                <ele>33.302856</ele>
                <time>2005-03-27T04:19:07Z</time>
            </trkpt>
            <trkpt lon="99.938979" lat="12.525659">
                <ele>32.822266</ele>
                <time>2005-03-27T04:19:13Z</time>
            </trkpt>
            <trkpt lon="99.939644" lat="12.525315">
                <ele>33.302856</ele>
                <time>2005-03-27T04:19:33Z</time>
            </trkpt>
            <trkpt lon="99.940138" lat="12.524865">
                <ele>35.225464</ele>
                <time>2005-03-27T04:19:51Z</time>
            </trkpt>
            <trkpt lon="99.940138" lat="12.524178">
                <ele>36.667480</ele>
                <time>2005-03-27T04:20:07Z</time>
            </trkpt>
            <trkpt lon="99.940159" lat="12.523534">
                <ele>38.590088</ele>
                <time>2005-03-27T04:20:25Z</time>
            </trkpt>
            <trkpt lon="99.940181" lat="12.523384">
                <ele>39.551270</ele>
                <time>2005-03-27T04:20:31Z</time>
            </trkpt>
            <trkpt lon="99.940653" lat="12.523320">
                <ele>37.148071</ele>
                <time>2005-03-27T04:20:44Z</time>
            </trkpt>
            <trkpt lon="99.941211" lat="12.523513">
                <ele>35.225464</ele>
                <time>2005-03-27T04:20:59Z</time>
            </trkpt>
            <trkpt lon="99.941511" lat="12.523620">
                <ele>34.264160</ele>
                <time>2005-03-27T04:21:09Z</time>
            </trkpt>
            <trkpt lon="99.941812" lat="12.523770">
                <ele>35.225464</ele>
                <time>2005-03-27T04:21:22Z</time>
            </trkpt>
            <trkpt lon="99.941962" lat="12.523663">
                <ele>37.628662</ele>
                <time>2005-03-27T04:21:36Z</time>
            </trkpt>
            <trkpt lon="99.942048" lat="12.523534">
                <ele>38.590088</ele>
                <time>2005-03-27T04:21:52Z</time>
            </trkpt>
            <trkpt lon="99.942305" lat="12.523384">
                <ele>40.993408</ele>
                <time>2005-03-27T04:22:08Z</time>
            </trkpt>
            <trkpt lon="99.942799" lat="12.523320">
                <ele>40.993408</ele>
                <time>2005-03-27T04:22:29Z</time>
            </trkpt>
            <trkpt lon="99.943292" lat="12.523341">
                <ele>42.916016</ele>
                <time>2005-03-27T04:22:47Z</time>
            </trkpt>
            <trkpt lon="99.943528" lat="12.523191">
                <ele>46.280640</ele>
                <time>2005-03-27T04:22:59Z</time>
            </trkpt>
            <trkpt lon="99.943528" lat="12.523191">
                <ele>46.761230</ele>
                <time>2005-03-27T04:23:00Z</time>
            </trkpt>
            <trkpt lon="99.943786" lat="12.523062">
                <ele>49.645264</ele>
                <time>2005-03-27T04:23:16Z</time>
            </trkpt>
            <trkpt lon="99.943936" lat="12.522848">
                <ele>50.606567</ele>
                <time>2005-03-27T04:23:29Z</time>
            </trkpt>
            <trkpt lon="99.943914" lat="12.522612">
                <ele>50.606567</ele>
                <time>2005-03-27T04:23:44Z</time>
            </trkpt>
            <trkpt lon="99.943893" lat="12.522376">
                <ele>53.490479</ele>
                <time>2005-03-27T04:23:58Z</time>
            </trkpt>
            <trkpt lon="99.943850" lat="12.522376">
                <ele>53.009766</ele>
                <time>2005-03-27T04:24:02Z</time>
            </trkpt>
            <trkpt lon="99.943721" lat="12.522676">
                <ele>53.490479</ele>
                <time>2005-03-27T04:24:20Z</time>
            </trkpt>
            <trkpt lon="99.943700" lat="12.522719">
                <ele>52.529175</ele>
                <time>2005-03-27T04:24:25Z</time>
            </trkpt>
            <trkpt lon="99.943657" lat="12.522783">
                <ele>52.529175</ele>
                <time>2005-03-27T04:24:30Z</time>
            </trkpt>
            <trkpt lon="99.943635" lat="12.522805">
                <ele>53.009766</ele>
                <time>2005-03-27T04:24:44Z</time>
            </trkpt>
            <trkpt lon="99.943678" lat="12.522826">
                <ele>52.048584</ele>
                <time>2005-03-27T04:25:18Z</time>
            </trkpt>
            <trkpt lon="99.943678" lat="12.522848">
                <ele>51.567871</ele>
                <time>2005-03-27T04:25:20Z</time>
            </trkpt>
            <trkpt lon="99.943764" lat="12.522762">
                <ele>49.164551</ele>
                <time>2005-03-27T04:25:30Z</time>
            </trkpt>
            <trkpt lon="99.943786" lat="12.522719">
                <ele>48.683960</ele>
                <time>2005-03-27T04:25:47Z</time>
            </trkpt>
            <trkpt lon="99.943786" lat="12.522762">
                <ele>51.567871</ele>
                <time>2005-03-27T04:26:35Z</time>
            </trkpt>
            <trkpt lon="99.943678" lat="12.522869">
                <ele>50.606567</ele>
                <time>2005-03-27T04:26:43Z</time>
            </trkpt>
            <trkpt lon="99.943593" lat="12.522976">
                <ele>49.164551</ele>
                <time>2005-03-27T04:26:56Z</time>
            </trkpt>
            <trkpt lon="99.943614" lat="12.522976">
                <ele>51.087158</ele>
                <time>2005-03-27T04:27:04Z</time>
            </trkpt>
            <trkpt lon="99.943657" lat="12.522933">
                <ele>51.087158</ele>
                <time>2005-03-27T04:27:08Z</time>
            </trkpt>
            <trkpt lon="99.943700" lat="12.522869">
                <ele>50.606567</ele>
                <time>2005-03-27T04:27:13Z</time>
            </trkpt>
            <trkpt lon="99.943743" lat="12.522891">
                <ele>52.529175</ele>
                <time>2005-03-27T04:27:25Z</time>
            </trkpt>
            <trkpt lon="99.943743" lat="12.522891">
                <ele>49.645264</ele>
                <time>2005-03-27T04:27:46Z</time>
            </trkpt>
            <trkpt lon="99.943743" lat="12.522869">
                <ele>49.645264</ele>
                <time>2005-03-27T04:27:54Z</time>
            </trkpt>
            <trkpt lon="99.943678" lat="12.522655">
                <ele>50.125977</ele>
                <time>2005-03-27T04:28:06Z</time>
            </trkpt>
            <trkpt lon="99.943807" lat="12.522397">
                <ele>52.529175</ele>
                <time>2005-03-27T04:28:20Z</time>
            </trkpt>
            <trkpt lon="99.943914" lat="12.522290">
                <ele>54.451782</ele>
                <time>2005-03-27T04:28:33Z</time>
            </trkpt>
            <trkpt lon="99.943914" lat="12.522311">
                <ele>54.932373</ele>
                <time>2005-03-27T04:28:40Z</time>
            </trkpt>
            <trkpt lon="99.943893" lat="12.522397">
                <ele>53.971191</ele>
                <time>2005-03-27T04:28:45Z</time>
            </trkpt>
            <trkpt lon="99.943914" lat="12.522826">
                <ele>50.125977</ele>
                <time>2005-03-27T04:28:58Z</time>
            </trkpt>
            <trkpt lon="99.943721" lat="12.523084">
                <ele>48.203369</ele>
                <time>2005-03-27T04:29:08Z</time>
            </trkpt>
            <trkpt lon="99.943442" lat="12.523298">
                <ele>45.319214</ele>
                <time>2005-03-27T04:29:22Z</time>
            </trkpt>
            <trkpt lon="99.943421" lat="12.523298">
                <ele>43.877319</ele>
                <time>2005-03-27T04:29:29Z</time>
            </trkpt>
            <trkpt lon="99.943292" lat="12.523320">
                <ele>44.358032</ele>
                <time>2005-03-27T04:29:39Z</time>
            </trkpt>
            <trkpt lon="99.943292" lat="12.523320">
                <ele>43.877319</ele>
                <time>2005-03-27T04:29:53Z</time>
            </trkpt>
            <trkpt lon="99.943249" lat="12.523341">
                <ele>43.877319</ele>
                <time>2005-03-27T04:30:43Z</time>
            </trkpt>
            <trkpt lon="99.943142" lat="12.523320">
                <ele>41.954712</ele>
                <time>2005-03-27T04:30:48Z</time>
            </trkpt>
            <trkpt lon="99.942541" lat="12.523277">
                <ele>41.954712</ele>
                <time>2005-03-27T04:31:04Z</time>
            </trkpt>
            <trkpt lon="99.942434" lat="12.523298">
                <ele>41.954712</ele>
                <time>2005-03-27T04:31:07Z</time>
            </trkpt>
            <trkpt lon="99.942069" lat="12.523234">
                <ele>40.993408</ele>
                <time>2005-03-27T04:31:18Z</time>
            </trkpt>
            <trkpt lon="99.941876" lat="12.523127">
                <ele>40.993408</ele>
                <time>2005-03-27T04:31:27Z</time>
            </trkpt>
            <trkpt lon="99.941726" lat="12.523062">
                <ele>41.473999</ele>
                <time>2005-03-27T04:31:39Z</time>
            </trkpt>
            <trkpt lon="99.941704" lat="12.522976">
                <ele>41.954712</ele>
                <time>2005-03-27T04:31:44Z</time>
            </trkpt>
            <trkpt lon="99.941640" lat="12.522869">
                <ele>42.435425</ele>
                <time>2005-03-27T04:31:53Z</time>
            </trkpt>
            <trkpt lon="99.941554" lat="12.522826">
                <ele>41.954712</ele>
                <time>2005-03-27T04:31:59Z</time>
            </trkpt>
            <trkpt lon="99.941297" lat="12.522762">
                <ele>41.954712</ele>
                <time>2005-03-27T04:32:14Z</time>
            </trkpt>
            <trkpt lon="99.941125" lat="12.522805">
                <ele>40.032104</ele>
                <time>2005-03-27T04:32:25Z</time>
            </trkpt>
            <trkpt lon="99.941039" lat="12.523127">
                <ele>37.628662</ele>
                <time>2005-03-27T04:32:36Z</time>
            </trkpt>
            <trkpt lon="99.940953" lat="12.523406">
                <ele>36.667480</ele>
                <time>2005-03-27T04:32:45Z</time>
            </trkpt>
            <trkpt lon="99.941039" lat="12.523491">
                <ele>35.706055</ele>
                <time>2005-03-27T04:32:55Z</time>
            </trkpt>
            <trkpt lon="99.941082" lat="12.523491">
                <ele>37.628662</ele>
                <time>2005-03-27T04:33:04Z</time>
            </trkpt>
            <trkpt lon="99.941039" lat="12.523448">
                <ele>37.628662</ele>
                <time>2005-03-27T04:33:10Z</time>
            </trkpt>
            <trkpt lon="99.940717" lat="12.523341">
                <ele>36.667480</ele>
                <time>2005-03-27T04:33:23Z</time>
            </trkpt>
            <trkpt lon="99.940395" lat="12.523277">
                <ele>37.628662</ele>
                <time>2005-03-27T04:33:36Z</time>
            </trkpt>
            <trkpt lon="99.940138" lat="12.523384">
                <ele>38.109375</ele>
                <time>2005-03-27T04:33:47Z</time>
            </trkpt>
            <trkpt lon="99.940009" lat="12.523341">
                <ele>39.070679</ele>
                <time>2005-03-27T04:33:53Z</time>
            </trkpt>
            <trkpt lon="99.939537" lat="12.523212">
                <ele>39.070679</ele>
                <time>2005-03-27T04:34:11Z</time>
            </trkpt>
            <trkpt lon="99.939387" lat="12.523148">
                <ele>39.070679</ele>
                <time>2005-03-27T04:34:19Z</time>
            </trkpt>
            <trkpt lon="99.939301" lat="12.522826">
                <ele>42.916016</ele>
                <time>2005-03-27T04:34:36Z</time>
            </trkpt>
            <trkpt lon="99.939194" lat="12.522633">
                <ele>45.319214</ele>
                <time>2005-03-27T04:34:51Z</time>
            </trkpt>
            <trkpt lon="99.939108" lat="12.522569">
                <ele>45.799927</ele>
                <time>2005-03-27T04:34:57Z</time>
            </trkpt>
            <trkpt lon="99.938979" lat="12.522418">
                <ele>46.280640</ele>
                <time>2005-03-27T04:35:09Z</time>
            </trkpt>
            <trkpt lon="99.938979" lat="12.522397">
                <ele>46.761230</ele>
                <time>2005-03-27T04:35:25Z</time>
            </trkpt>
            <trkpt lon="99.939001" lat="12.522397">
                <ele>46.280640</ele>
                <time>2005-03-27T04:35:34Z</time>
            </trkpt>
            <trkpt lon="99.939194" lat="12.522676">
                <ele>44.838623</ele>
                <time>2005-03-27T04:35:48Z</time>
            </trkpt>
            <trkpt lon="99.939280" lat="12.522869">
                <ele>43.877319</ele>
                <time>2005-03-27T04:35:54Z</time>
            </trkpt>
            <trkpt lon="99.939301" lat="12.523041">
                <ele>42.435425</ele>
                <time>2005-03-27T04:35:58Z</time>
            </trkpt>
            <trkpt lon="99.939559" lat="12.523255">
                <ele>41.954712</ele>
                <time>2005-03-27T04:36:05Z</time>
            </trkpt>
            <trkpt lon="99.939880" lat="12.523320">
                <ele>40.512817</ele>
                <time>2005-03-27T04:36:12Z</time>
            </trkpt>
            <trkpt lon="99.940052" lat="12.523427">
                <ele>39.551270</ele>
                <time>2005-03-27T04:36:17Z</time>
            </trkpt>
            <trkpt lon="99.940116" lat="12.523620">
                <ele>39.070679</ele>
                <time>2005-03-27T04:36:22Z</time>
            </trkpt>
            <trkpt lon="99.940116" lat="12.524543">
                <ele>36.667480</ele>
                <time>2005-03-27T04:36:40Z</time>
            </trkpt>
            <trkpt lon="99.940116" lat="12.524972">
                <ele>36.186768</ele>
                <time>2005-03-27T04:36:52Z</time>
            </trkpt>
            <trkpt lon="99.940224" lat="12.525015">
                <ele>34.264160</ele>
                <time>2005-03-27T04:36:56Z</time>
            </trkpt>
            <trkpt lon="99.940696" lat="12.524886">
                <ele>34.744873</ele>
                <time>2005-03-27T04:37:09Z</time>
            </trkpt>
            <trkpt lon="99.941232" lat="12.524757">
                <ele>32.822266</ele>
                <time>2005-03-27T04:37:26Z</time>
            </trkpt>
            <trkpt lon="99.941404" lat="12.524693">
                <ele>31.380127</ele>
                <time>2005-03-27T04:37:39Z</time>
            </trkpt>
            <trkpt lon="99.941382" lat="12.524714">
                <ele>31.380127</ele>
                <time>2005-03-27T04:37:43Z</time>
            </trkpt>
            <trkpt lon="99.941082" lat="12.524779">
                <ele>30.899536</ele>
                <time>2005-03-27T04:37:57Z</time>
            </trkpt>
            <trkpt lon="99.940546" lat="12.524908">
                <ele>31.380127</ele>
                <time>2005-03-27T04:38:14Z</time>
            </trkpt>
            <trkpt lon="99.940202" lat="12.524972">
                <ele>31.860718</ele>
                <time>2005-03-27T04:38:28Z</time>
            </trkpt>
            <trkpt lon="99.939902" lat="12.525101">
                <ele>30.899536</ele>
                <time>2005-03-27T04:38:43Z</time>
            </trkpt>
            <trkpt lon="99.939172" lat="12.525508">
                <ele>30.899536</ele>
                <time>2005-03-27T04:39:02Z</time>
            </trkpt>
            <trkpt lon="99.939194" lat="12.525530">
                <ele>30.418823</ele>
                <time>2005-03-27T04:39:15Z</time>
            </trkpt>
            <trkpt lon="99.939494" lat="12.525380">
                <ele>30.899536</ele>
                <time>2005-03-27T04:39:29Z</time>
            </trkpt>
            <trkpt lon="99.939902" lat="12.525144">
                <ele>32.341553</ele>
                <time>2005-03-27T04:39:45Z</time>
            </trkpt>
            <trkpt lon="99.940159" lat="12.524757">
                <ele>35.225464</ele>
                <time>2005-03-27T04:40:01Z</time>
            </trkpt>
            <trkpt lon="99.940159" lat="12.524371">
                <ele>35.225464</ele>
                <time>2005-03-27T04:40:16Z</time>
            </trkpt>
            <trkpt lon="99.940138" lat="12.524028">
                <ele>35.706055</ele>
                <time>2005-03-27T04:40:31Z</time>
            </trkpt>
            <trkpt lon="99.940138" lat="12.523556">
                <ele>37.148071</ele>
                <time>2005-03-27T04:40:48Z</time>
            </trkpt>
            <trkpt lon="99.940267" lat="12.523341">
                <ele>40.512817</ele>
                <time>2005-03-27T04:41:03Z</time>
            </trkpt>
            <trkpt lon="99.940524" lat="12.523298">
                <ele>38.590088</ele>
                <time>2005-03-27T04:41:19Z</time>
            </trkpt>
            <trkpt lon="99.940760" lat="12.523363">
                <ele>37.628662</ele>
                <time>2005-03-27T04:41:33Z</time>
            </trkpt>
            <trkpt lon="99.940889" lat="12.523384">
                <ele>37.148071</ele>
                <time>2005-03-27T04:41:41Z</time>
            </trkpt>
            <trkpt lon="99.941189" lat="12.523534">
                <ele>35.706055</ele>
                <time>2005-03-27T04:41:59Z</time>
            </trkpt>
            <trkpt lon="99.941490" lat="12.523642">
                <ele>34.744873</ele>
                <time>2005-03-27T04:42:13Z</time>
            </trkpt>
            <trkpt lon="99.941726" lat="12.523770">
                <ele>34.744873</ele>
                <time>2005-03-27T04:42:27Z</time>
            </trkpt>
            <trkpt lon="99.942026" lat="12.523921">
                <ele>34.744873</ele>
                <time>2005-03-27T04:42:42Z</time>
            </trkpt>
            <trkpt lon="99.942369" lat="12.524264">
                <ele>33.783447</ele>
                <time>2005-03-27T04:42:57Z</time>
            </trkpt>
            <trkpt lon="99.942842" lat="12.524521">
                <ele>32.822266</ele>
                <time>2005-03-27T04:43:11Z</time>
            </trkpt>
            <trkpt lon="99.943442" lat="12.524736">
                <ele>32.341553</ele>
                <time>2005-03-27T04:43:31Z</time>
            </trkpt>
            <trkpt lon="99.943871" lat="12.524865">
                <ele>31.860718</ele>
                <time>2005-03-27T04:43:44Z</time>
            </trkpt>
            <trkpt lon="99.943893" lat="12.524886">
                <ele>31.860718</ele>
                <time>2005-03-27T04:43:49Z</time>
            </trkpt>
            <trkpt lon="99.944022" lat="12.525165">
                <ele>31.860718</ele>
                <time>2005-03-27T04:44:01Z</time>
            </trkpt>
            <trkpt lon="99.944086" lat="12.525401">
                <ele>31.380127</ele>
                <time>2005-03-27T04:44:12Z</time>
            </trkpt>
            <trkpt lon="99.944193" lat="12.525659">
                <ele>31.380127</ele>
                <time>2005-03-27T04:44:23Z</time>
            </trkpt>
            <trkpt lon="99.944322" lat="12.525723">
                <ele>30.899536</ele>
                <time>2005-03-27T04:44:29Z</time>
            </trkpt>
            <trkpt lon="99.944494" lat="12.525616">
                <ele>30.899536</ele>
                <time>2005-03-27T04:44:39Z</time>
            </trkpt>
            <trkpt lon="99.944537" lat="12.525401">
                <ele>30.899536</ele>
                <time>2005-03-27T04:44:49Z</time>
            </trkpt>
            <trkpt lon="99.944558" lat="12.525358">
                <ele>30.899536</ele>
                <time>2005-03-27T04:44:50Z</time>
            </trkpt>
            <trkpt lon="99.944580" lat="12.525294">
                <ele>30.899536</ele>
                <time>2005-03-27T04:44:53Z</time>
            </trkpt>
            <trkpt lon="99.944644" lat="12.525315">
                <ele>30.899536</ele>
                <time>2005-03-27T04:44:57Z</time>
            </trkpt>
            <trkpt lon="99.944773" lat="12.525315">
                <ele>30.899536</ele>
                <time>2005-03-27T04:45:03Z</time>
            </trkpt>
            <trkpt lon="99.944923" lat="12.525423">
                <ele>30.899536</ele>
                <time>2005-03-27T04:45:13Z</time>
            </trkpt>
            <trkpt lon="99.944923" lat="12.525423">
                <ele>30.899536</ele>
                <time>2005-03-27T04:45:14Z</time>
            </trkpt>
            <trkpt lon="99.945116" lat="12.525380">
                <ele>30.899536</ele>
                <time>2005-03-27T04:45:23Z</time>
            </trkpt>
            <trkpt lon="99.945223" lat="12.525165">
                <ele>31.860718</ele>
                <time>2005-03-27T04:45:38Z</time>
            </trkpt>
            <trkpt lon="99.945438" lat="12.525079">
                <ele>32.822266</ele>
                <time>2005-03-27T04:45:50Z</time>
            </trkpt>
            <trkpt lon="99.945867" lat="12.525251">
                <ele>31.380127</ele>
                <time>2005-03-27T04:46:06Z</time>
            </trkpt>
            <trkpt lon="99.946361" lat="12.525358">
                <ele>31.860718</ele>
                <time>2005-03-27T04:46:23Z</time>
            </trkpt>
            <trkpt lon="99.946811" lat="12.525465">
                <ele>30.418823</ele>
                <time>2005-03-27T04:46:37Z</time>
            </trkpt>
            <trkpt lon="99.947047" lat="12.525744">
                <ele>29.457520</ele>
                <time>2005-03-27T04:46:48Z</time>
            </trkpt>
            <trkpt lon="99.947455" lat="12.525830">
                <ele>27.534912</ele>
                <time>2005-03-27T04:47:03Z</time>
            </trkpt>
            <trkpt lon="99.947519" lat="12.525830">
                <ele>28.015503</ele>
                <time>2005-03-27T04:47:16Z</time>
            </trkpt>
            <trkpt lon="99.947863" lat="12.525938">
                <ele>25.612305</ele>
                <time>2005-03-27T04:47:30Z</time>
            </trkpt>
            <trkpt lon="99.948184" lat="12.525873">
                <ele>26.092896</ele>
                <time>2005-03-27T04:47:46Z</time>
            </trkpt>
            <trkpt lon="99.948184" lat="12.525852">
                <ele>27.054321</ele>
                <time>2005-03-27T04:47:58Z</time>
            </trkpt>
            <trkpt lon="99.948206" lat="12.525787">
                <ele>27.054321</ele>
                <time>2005-03-27T04:48:02Z</time>
            </trkpt>
            <trkpt lon="99.948184" lat="12.525444">
                <ele>29.938110</ele>
                <time>2005-03-27T04:48:21Z</time>
            </trkpt>
            <trkpt lon="99.948292" lat="12.525187">
                <ele>32.822266</ele>
                <time>2005-03-27T04:48:38Z</time>
            </trkpt>
            <trkpt lon="99.948335" lat="12.524993">
                <ele>33.783447</ele>
                <time>2005-03-27T04:48:51Z</time>
            </trkpt>
            <trkpt lon="99.948356" lat="12.524993">
                <ele>34.744873</ele>
                <time>2005-03-27T04:48:59Z</time>
            </trkpt>
            <trkpt lon="99.948206" lat="12.525315">
                <ele>32.341553</ele>
                <time>2005-03-27T04:49:13Z</time>
            </trkpt>
            <trkpt lon="99.948206" lat="12.525702">
                <ele>29.457520</ele>
                <time>2005-03-27T04:49:25Z</time>
            </trkpt>
            <trkpt lon="99.948227" lat="12.525766">
                <ele>28.496216</ele>
                <time>2005-03-27T04:49:28Z</time>
            </trkpt>
            <trkpt lon="99.948335" lat="12.525787">
                <ele>28.015503</ele>
                <time>2005-03-27T04:49:32Z</time>
            </trkpt>
            <trkpt lon="99.948957" lat="12.525766">
                <ele>27.054321</ele>
                <time>2005-03-27T04:49:51Z</time>
            </trkpt>
            <trkpt lon="99.949493" lat="12.525873">
                <ele>26.092896</ele>
                <time>2005-03-27T04:50:07Z</time>
            </trkpt>
            <trkpt lon="99.950030" lat="12.525938">
                <ele>25.131714</ele>
                <time>2005-03-27T04:50:24Z</time>
            </trkpt>
            <trkpt lon="99.950480" lat="12.525787">
                <ele>26.573608</ele>
                <time>2005-03-27T04:50:40Z</time>
            </trkpt>
            <trkpt lon="99.950910" lat="12.525637">
                <ele>26.092896</ele>
                <time>2005-03-27T04:50:55Z</time>
            </trkpt>
            <trkpt lon="99.950974" lat="12.525594">
                <ele>27.054321</ele>
                <time>2005-03-27T04:50:59Z</time>
            </trkpt>
            <trkpt lon="99.950953" lat="12.525530">
                <ele>27.534912</ele>
                <time>2005-03-27T04:51:05Z</time>
            </trkpt>
            <trkpt lon="99.951017" lat="12.525229">
                <ele>28.976929</ele>
                <time>2005-03-27T04:51:20Z</time>
            </trkpt>
            <trkpt lon="99.951231" lat="12.524800">
                <ele>31.380127</ele>
                <time>2005-03-27T04:51:41Z</time>
            </trkpt>
            <trkpt lon="99.951575" lat="12.524393">
                <ele>30.899536</ele>
                <time>2005-03-27T04:51:59Z</time>
            </trkpt>
            <trkpt lon="99.952025" lat="12.524114">
                <ele>29.938110</ele>
                <time>2005-03-27T04:52:15Z</time>
            </trkpt>
            <trkpt lon="99.952583" lat="12.523685">
                <ele>30.418823</ele>
                <time>2005-03-27T04:52:35Z</time>
            </trkpt>
            <trkpt lon="99.953055" lat="12.523041">
                <ele>30.899536</ele>
                <time>2005-03-27T04:52:58Z</time>
            </trkpt>
            <trkpt lon="99.953399" lat="12.522783">
                <ele>29.938110</ele>
                <time>2005-03-27T04:53:13Z</time>
            </trkpt>
            <trkpt lon="99.954193" lat="12.522933">
                <ele>28.976929</ele>
                <time>2005-03-27T04:53:31Z</time>
            </trkpt>
            <trkpt lon="99.954300" lat="12.522955">
                <ele>28.976929</ele>
                <time>2005-03-27T04:53:33Z</time>
            </trkpt>
            <trkpt lon="99.954643" lat="12.522848">
                <ele>29.938110</ele>
                <time>2005-03-27T04:53:41Z</time>
            </trkpt>
            <trkpt lon="99.954901" lat="12.522612">
                <ele>30.418823</ele>
                <time>2005-03-27T04:53:50Z</time>
            </trkpt>
            <trkpt lon="99.955652" lat="12.522397">
                <ele>29.457520</ele>
                <time>2005-03-27T04:54:07Z</time>
            </trkpt>
            <trkpt lon="99.956188" lat="12.522140">
                <ele>29.938110</ele>
                <time>2005-03-27T04:54:22Z</time>
            </trkpt>
            <trkpt lon="99.956617" lat="12.521753">
                <ele>28.976929</ele>
                <time>2005-03-27T04:54:35Z</time>
            </trkpt>
            <trkpt lon="99.956939" lat="12.521496">
                <ele>28.496216</ele>
                <time>2005-03-27T04:54:44Z</time>
            </trkpt>
            <trkpt lon="99.957111" lat="12.521410">
                <ele>29.457520</ele>
                <time>2005-03-27T04:54:49Z</time>
            </trkpt>
            <trkpt lon="99.957068" lat="12.521303">
                <ele>29.938110</ele>
                <time>2005-03-27T04:54:57Z</time>
            </trkpt>
            <trkpt lon="99.956574" lat="12.521045">
                <ele>29.938110</ele>
                <time>2005-03-27T04:55:20Z</time>
            </trkpt>
            <trkpt lon="99.956081" lat="12.520831">
                <ele>30.899536</ele>
                <time>2005-03-27T04:55:43Z</time>
            </trkpt>
            <trkpt lon="99.955845" lat="12.520745">
                <ele>32.341553</ele>
                <time>2005-03-27T04:55:55Z</time>
            </trkpt>
            <trkpt lon="99.955802" lat="12.520638">
                <ele>32.341553</ele>
                <time>2005-03-27T04:56:00Z</time>
            </trkpt>
            <trkpt lon="99.955673" lat="12.520123">
                <ele>32.341553</ele>
                <time>2005-03-27T04:56:17Z</time>
            </trkpt>
            <trkpt lon="99.955802" lat="12.519801">
                <ele>34.744873</ele>
                <time>2005-03-27T04:56:30Z</time>
            </trkpt>
            <trkpt lon="99.955909" lat="12.519522">
                <ele>37.628662</ele>
                <time>2005-03-27T04:56:45Z</time>
            </trkpt>
            <trkpt lon="99.956038" lat="12.518942">
                <ele>39.551270</ele>
                <time>2005-03-27T04:57:05Z</time>
            </trkpt>
            <trkpt lon="99.956102" lat="12.518535">
                <ele>40.993408</ele>
                <time>2005-03-27T04:57:18Z</time>
            </trkpt>
            <trkpt lon="99.956124" lat="12.518234">
                <ele>40.993408</ele>
                <time>2005-03-27T04:57:32Z</time>
            </trkpt>
            <trkpt lon="99.956231" lat="12.517912">
                <ele>37.148071</ele>
                <time>2005-03-27T04:57:42Z</time>
            </trkpt>
            <trkpt lon="99.956253" lat="12.517719">
                <ele>37.628662</ele>
                <time>2005-03-27T04:57:50Z</time>
            </trkpt>
            <trkpt lon="99.956317" lat="12.517676">
                <ele>39.551270</ele>
                <time>2005-03-27T04:57:54Z</time>
            </trkpt>
            <trkpt lon="99.956403" lat="12.517612">
                <ele>41.954712</ele>
                <time>2005-03-27T04:58:08Z</time>
            </trkpt>
            <trkpt lon="99.956682" lat="12.517569">
                <ele>40.993408</ele>
                <time>2005-03-27T04:58:20Z</time>
            </trkpt>
            <trkpt lon="99.956982" lat="12.517548">
                <ele>37.628662</ele>
                <time>2005-03-27T04:58:30Z</time>
            </trkpt>
            <trkpt lon="99.957154" lat="12.517483">
                <ele>35.706055</ele>
                <time>2005-03-27T04:58:38Z</time>
            </trkpt>
            <trkpt lon="99.957218" lat="12.517526">
                <ele>35.225464</ele>
                <time>2005-03-27T04:58:42Z</time>
            </trkpt>
            <trkpt lon="99.957261" lat="12.517591">
                <ele>34.264160</ele>
                <time>2005-03-27T04:58:46Z</time>
            </trkpt>
            <trkpt lon="99.957304" lat="12.517591">
                <ele>33.302856</ele>
                <time>2005-03-27T04:59:01Z</time>
            </trkpt>
            <trkpt lon="99.957368" lat="12.517612">
                <ele>32.822266</ele>
                <time>2005-03-27T04:59:08Z</time>
            </trkpt>
            <trkpt lon="99.957454" lat="12.517655">
                <ele>34.264160</ele>
                <time>2005-03-27T04:59:23Z</time>
            </trkpt>
            <trkpt lon="99.957433" lat="12.517655">
                <ele>33.302856</ele>
                <time>2005-03-27T04:59:29Z</time>
            </trkpt>
            <trkpt lon="99.957411" lat="12.517612">
                <ele>32.822266</ele>
                <time>2005-03-27T04:59:32Z</time>
            </trkpt>
            <trkpt lon="99.957454" lat="12.517569">
                <ele>32.822266</ele>
                <time>2005-03-27T04:59:46Z</time>
            </trkpt>
            <trkpt lon="99.957433" lat="12.517569">
                <ele>32.822266</ele>
                <time>2005-03-27T04:59:53Z</time>
            </trkpt>
            <trkpt lon="99.957347" lat="12.517505">
                <ele>31.860718</ele>
                <time>2005-03-27T05:00:03Z</time>
            </trkpt>
            <trkpt lon="99.957347" lat="12.517483">
                <ele>32.341553</ele>
                <time>2005-03-27T05:00:06Z</time>
            </trkpt>
            <trkpt lon="99.957347" lat="12.517376">
                <ele>31.860718</ele>
                <time>2005-03-27T05:00:21Z</time>
            </trkpt>
            <trkpt lon="99.957347" lat="12.517333">
                <ele>31.860718</ele>
                <time>2005-03-27T05:00:43Z</time>
            </trkpt>
            <trkpt lon="99.957368" lat="12.517312">
                <ele>31.860718</ele>
                <time>2005-03-27T05:00:45Z</time>
            </trkpt>
            <trkpt lon="99.957604" lat="12.517140">
                <ele>32.822266</ele>
                <time>2005-03-27T05:00:59Z</time>
            </trkpt>
            <trkpt lon="99.957647" lat="12.517118">
                <ele>32.341553</ele>
                <time>2005-03-27T05:01:11Z</time>
            </trkpt>
            <trkpt lon="99.957669" lat="12.517097">
                <ele>32.822266</ele>
                <time>2005-03-27T05:01:15Z</time>
            </trkpt>
            <trkpt lon="99.957712" lat="12.517054">
                <ele>32.822266</ele>
                <time>2005-03-27T05:01:23Z</time>
            </trkpt>
            <trkpt lon="99.957669" lat="12.516925">
                <ele>31.380127</ele>
                <time>2005-03-27T05:01:34Z</time>
            </trkpt>
            <trkpt lon="99.957755" lat="12.516904">
                <ele>33.302856</ele>
                <time>2005-03-27T05:01:46Z</time>
            </trkpt>
            <trkpt lon="99.957840" lat="12.516904">
                <ele>32.822266</ele>
                <time>2005-03-27T05:01:53Z</time>
            </trkpt>
            <trkpt lon="99.957905" lat="12.516861">
                <ele>36.667480</ele>
                <time>2005-03-27T05:02:15Z</time>
            </trkpt>
            <trkpt lon="99.957862" lat="12.516840">
                <ele>35.225464</ele>
                <time>2005-03-27T05:03:09Z</time>
            </trkpt>
            <trkpt lon="99.957862" lat="12.516754">
                <ele>34.264160</ele>
                <time>2005-03-27T05:03:22Z</time>
            </trkpt>
            <trkpt lon="99.957905" lat="12.516603">
                <ele>36.186768</ele>
                <time>2005-03-27T05:03:41Z</time>
            </trkpt>
            <trkpt lon="99.957948" lat="12.516346">
                <ele>35.225464</ele>
                <time>2005-03-27T05:03:55Z</time>
            </trkpt>
            <trkpt lon="99.958248" lat="12.516282">
                <ele>35.706055</ele>
                <time>2005-03-27T05:04:07Z</time>
            </trkpt>
            <trkpt lon="99.958699" lat="12.516410">
                <ele>31.860718</ele>
                <time>2005-03-27T05:04:20Z</time>
            </trkpt>
            <trkpt lon="99.958956" lat="12.516260">
                <ele>31.380127</ele>
                <time>2005-03-27T05:04:31Z</time>
            </trkpt>
            <trkpt lon="99.959064" lat="12.516303">
                <ele>29.938110</ele>
                <time>2005-03-27T05:04:34Z</time>
            </trkpt>
            <trkpt lon="99.959214" lat="12.516389">
                <ele>28.496216</ele>
                <time>2005-03-27T05:04:38Z</time>
            </trkpt>
            <trkpt lon="99.959600" lat="12.516496">
                <ele>26.092896</ele>
                <time>2005-03-27T05:04:48Z</time>
            </trkpt>
            <trkpt lon="99.959879" lat="12.516625">
                <ele>24.170288</ele>
                <time>2005-03-27T05:05:00Z</time>
            </trkpt>
            <trkpt lon="99.959922" lat="12.516625">
                <ele>23.689575</ele>
                <time>2005-03-27T05:05:08Z</time>
            </trkpt>
            <trkpt lon="99.960179" lat="12.516775">
                <ele>23.208984</ele>
                <time>2005-03-27T05:05:22Z</time>
            </trkpt>
            <trkpt lon="99.960308" lat="12.516840">
                <ele>22.728271</ele>
                <time>2005-03-27T05:05:33Z</time>
            </trkpt>
            <trkpt lon="99.960651" lat="12.516925">
                <ele>22.728271</ele>
                <time>2005-03-27T05:05:48Z</time>
            </trkpt>
            <trkpt lon="99.961038" lat="12.517076">
                <ele>22.247559</ele>
                <time>2005-03-27T05:06:04Z</time>
            </trkpt>
            <trkpt lon="99.961145" lat="12.517140">
                <ele>21.766968</ele>
                <time>2005-03-27T05:06:15Z</time>
            </trkpt>
            <trkpt lon="99.961166" lat="12.517118">
                <ele>21.286377</ele>
                <time>2005-03-27T05:06:57Z</time>
            </trkpt>
            <trkpt lon="99.961166" lat="12.517140">
                <ele>22.247559</ele>
                <time>2005-03-27T05:07:51Z</time>
            </trkpt>
            <trkpt lon="99.961402" lat="12.517333">
                <ele>21.286377</ele>
                <time>2005-03-27T05:08:00Z</time>
            </trkpt>
            <trkpt lon="99.961488" lat="12.517483">
                <ele>20.805664</ele>
                <time>2005-03-27T05:08:04Z</time>
            </trkpt>
            <trkpt lon="99.961553" lat="12.517633">
                <ele>20.805664</ele>
                <time>2005-03-27T05:08:07Z</time>
            </trkpt>
            <trkpt lon="99.961767" lat="12.517805">
                <ele>19.844360</ele>
                <time>2005-03-27T05:08:13Z</time>
            </trkpt>
            <trkpt lon="99.962132" lat="12.517827">
                <ele>19.363770</ele>
                <time>2005-03-27T05:08:21Z</time>
            </trkpt>
            <trkpt lon="99.962347" lat="12.517869">
                <ele>18.402344</ele>
                <time>2005-03-27T05:08:27Z</time>
            </trkpt>
            <trkpt lon="99.962368" lat="12.518234">
                <ele>17.921753</ele>
                <time>2005-03-27T05:08:38Z</time>
            </trkpt>
            <trkpt lon="99.962454" lat="12.518513">
                <ele>17.441162</ele>
                <time>2005-03-27T05:08:47Z</time>
            </trkpt>
            <trkpt lon="99.962626" lat="12.518620">
                <ele>16.960449</ele>
                <time>2005-03-27T05:08:58Z</time>
            </trkpt>
            <trkpt lon="99.963205" lat="12.518728">
                <ele>15.999023</ele>
                <time>2005-03-27T05:09:16Z</time>
            </trkpt>
            <trkpt lon="99.963827" lat="12.518814">
                <ele>13.595825</ele>
                <time>2005-03-27T05:09:32Z</time>
            </trkpt>
            <trkpt lon="99.964364" lat="12.518899">
                <ele>13.115112</ele>
                <time>2005-03-27T05:09:47Z</time>
            </trkpt>
            <trkpt lon="99.964406" lat="12.518792">
                <ele>12.634399</ele>
                <time>2005-03-27T05:09:51Z</time>
            </trkpt>
            <trkpt lon="99.964406" lat="12.518213">
                <ele>14.076416</ele>
                <time>2005-03-27T05:10:07Z</time>
            </trkpt>
            <trkpt lon="99.964364" lat="12.518148">
                <ele>13.595825</ele>
                <time>2005-03-27T05:10:09Z</time>
            </trkpt>
            <trkpt lon="99.964321" lat="12.517784">
                <ele>13.595825</ele>
                <time>2005-03-27T05:10:18Z</time>
            </trkpt>
            <trkpt lon="99.964063" lat="12.517226">
                <ele>13.115112</ele>
                <time>2005-03-27T05:10:34Z</time>
            </trkpt>
            <trkpt lon="99.963892" lat="12.516668">
                <ele>13.115112</ele>
                <time>2005-03-27T05:10:49Z</time>
            </trkpt>
            <trkpt lon="99.963870" lat="12.516646">
                <ele>13.115112</ele>
                <time>2005-03-27T05:10:50Z</time>
            </trkpt>
            <trkpt lon="99.963763" lat="12.516046">
                <ele>14.076416</ele>
                <time>2005-03-27T05:11:07Z</time>
            </trkpt>
            <trkpt lon="99.963720" lat="12.515659">
                <ele>13.595825</ele>
                <time>2005-03-27T05:11:20Z</time>
            </trkpt>
            <trkpt lon="99.963720" lat="12.515552">
                <ele>13.595825</ele>
                <time>2005-03-27T05:11:23Z</time>
            </trkpt>
            <trkpt lon="99.963892" lat="12.515488">
                <ele>13.115112</ele>
                <time>2005-03-27T05:11:28Z</time>
            </trkpt>
            <trkpt lon="99.964213" lat="12.515209">
                <ele>12.634399</ele>
                <time>2005-03-27T05:11:40Z</time>
            </trkpt>
            <trkpt lon="99.964428" lat="12.514887">
                <ele>13.595825</ele>
                <time>2005-03-27T05:11:54Z</time>
            </trkpt>
            <trkpt lon="99.964857" lat="12.514865">
                <ele>13.115112</ele>
                <time>2005-03-27T05:12:07Z</time>
            </trkpt>
            <trkpt lon="99.964879" lat="12.514544">
                <ele>13.595825</ele>
                <time>2005-03-27T05:12:18Z</time>
            </trkpt>
            <trkpt lon="99.964857" lat="12.514136">
                <ele>14.557007</ele>
                <time>2005-03-27T05:12:31Z</time>
            </trkpt>
            <trkpt lon="99.964857" lat="12.513664">
                <ele>14.076416</ele>
                <time>2005-03-27T05:12:47Z</time>
            </trkpt>
            <trkpt lon="99.964857" lat="12.513621">
                <ele>14.557007</ele>
                <time>2005-03-27T05:12:49Z</time>
            </trkpt>
            <trkpt lon="99.964986" lat="12.513578">
                <ele>14.557007</ele>
                <time>2005-03-27T05:12:55Z</time>
            </trkpt>
            <trkpt lon="99.965651" lat="12.513578">
                <ele>14.076416</ele>
                <time>2005-03-27T05:13:13Z</time>
            </trkpt>
            <trkpt lon="99.966252" lat="12.513492">
                <ele>13.115112</ele>
                <time>2005-03-27T05:13:29Z</time>
            </trkpt>
            <trkpt lon="99.966252" lat="12.513514">
                <ele>15.037720</ele>
                <time>2005-03-27T05:13:41Z</time>
            </trkpt>
            <trkpt lon="99.966767" lat="12.513556">
                <ele>12.153809</ele>
                <time>2005-03-27T05:13:54Z</time>
            </trkpt>
            <trkpt lon="99.968183" lat="12.513556">
                <ele>10.231201</ele>
                <time>2005-03-27T05:14:19Z</time>
            </trkpt>
            <trkpt lon="99.969406" lat="12.513556">
                <ele>9.269897</ele>
                <time>2005-03-27T05:14:40Z</time>
            </trkpt>
            <trkpt lon="99.970629" lat="12.513578">
                <ele>9.269897</ele>
                <time>2005-03-27T05:15:01Z</time>
            </trkpt>
            <trkpt lon="99.971466" lat="12.513578">
                <ele>8.789185</ele>
                <time>2005-03-27T05:15:16Z</time>
            </trkpt>
            <trkpt lon="99.971616" lat="12.513793">
                <ele>7.827881</ele>
                <time>2005-03-27T05:15:21Z</time>
            </trkpt>
            <trkpt lon="99.971809" lat="12.514114">
                <ele>6.866455</ele>
                <time>2005-03-27T05:15:28Z</time>
            </trkpt>
            <trkpt lon="99.972003" lat="12.514286">
                <ele>7.827881</ele>
                <time>2005-03-27T05:15:34Z</time>
            </trkpt>
            <trkpt lon="99.972088" lat="12.514458">
                <ele>5.905273</ele>
                <time>2005-03-27T05:15:38Z</time>
            </trkpt>
            <trkpt lon="99.972153" lat="12.514608">
                <ele>5.424561</ele>
                <time>2005-03-27T05:15:41Z</time>
            </trkpt>
            <trkpt lon="99.972646" lat="12.515230">
                <ele>3.982666</ele>
                <time>2005-03-27T05:15:57Z</time>
            </trkpt>
            <trkpt lon="99.972668" lat="12.515252">
                <ele>3.982666</ele>
                <time>2005-03-27T05:15:58Z</time>
            </trkpt>
            <trkpt lon="99.973247" lat="12.515552">
                <ele>3.982666</ele>
                <time>2005-03-27T05:16:14Z</time>
            </trkpt>
            <trkpt lon="99.973547" lat="12.515552">
                <ele>3.982666</ele>
                <time>2005-03-27T05:16:21Z</time>
            </trkpt>
            <trkpt lon="99.974406" lat="12.515166">
                <ele>3.982666</ele>
                <time>2005-03-27T05:16:41Z</time>
            </trkpt>
            <trkpt lon="99.974556" lat="12.515101">
                <ele>3.501953</ele>
                <time>2005-03-27T05:16:50Z</time>
            </trkpt>
            <trkpt lon="99.974535" lat="12.515059">
                <ele>2.540649</ele>
                <time>2005-03-27T05:17:55Z</time>
            </trkpt>
            <trkpt lon="99.974513" lat="12.515037">
                <ele>3.501953</ele>
                <time>2005-03-27T05:26:42Z</time>
            </trkpt>
            <trkpt lon="99.974856" lat="12.514930">
                <ele>3.021240</ele>
                <time>2005-03-27T05:26:58Z</time>
            </trkpt>
            <trkpt lon="99.974964" lat="12.514887">
                <ele>3.021240</ele>
                <time>2005-03-27T05:27:01Z</time>
            </trkpt>
            <trkpt lon="99.975221" lat="12.515016">
                <ele>3.021240</ele>
                <time>2005-03-27T05:27:08Z</time>
            </trkpt>
            <trkpt lon="99.975393" lat="12.515037">
                <ele>3.501953</ele>
                <time>2005-03-27T05:27:12Z</time>
            </trkpt>
            <trkpt lon="99.976015" lat="12.514994">
                <ele>3.982666</ele>
                <time>2005-03-27T05:27:26Z</time>
            </trkpt>
            <trkpt lon="99.976165" lat="12.515080">
                <ele>3.982666</ele>
                <time>2005-03-27T05:27:32Z</time>
            </trkpt>
            <trkpt lon="99.976208" lat="12.515917">
                <ele>3.982666</ele>
                <time>2005-03-27T05:27:50Z</time>
            </trkpt>
            <trkpt lon="99.976187" lat="12.516689">
                <ele>4.463257</ele>
                <time>2005-03-27T05:28:05Z</time>
            </trkpt>
            <trkpt lon="99.975972" lat="12.517612">
                <ele>4.943848</ele>
                <time>2005-03-27T05:28:23Z</time>
            </trkpt>
            <trkpt lon="99.975886" lat="12.518041">
                <ele>4.943848</ele>
                <time>2005-03-27T05:28:31Z</time>
            </trkpt>
            <trkpt lon="99.976037" lat="12.518470">
                <ele>4.943848</ele>
                <time>2005-03-27T05:28:40Z</time>
            </trkpt>
            <trkpt lon="99.975994" lat="12.518835">
                <ele>4.943848</ele>
                <time>2005-03-27T05:28:47Z</time>
            </trkpt>
            <trkpt lon="99.975801" lat="12.519221">
                <ele>5.424561</ele>
                <time>2005-03-27T05:28:55Z</time>
            </trkpt>
            <trkpt lon="99.975328" lat="12.520080">
                <ele>4.463257</ele>
                <time>2005-03-27T05:29:15Z</time>
            </trkpt>
            <trkpt lon="99.974921" lat="12.520874">
                <ele>3.982666</ele>
                <time>2005-03-27T05:29:32Z</time>
            </trkpt>
            <trkpt lon="99.974535" lat="12.521517">
                <ele>4.943848</ele>
                <time>2005-03-27T05:29:49Z</time>
            </trkpt>
            <trkpt lon="99.974492" lat="12.521582">
                <ele>4.463257</ele>
                <time>2005-03-27T05:29:52Z</time>
            </trkpt>
            <trkpt lon="99.974513" lat="12.521582">
                <ele>3.982666</ele>
                <time>2005-03-27T05:30:07Z</time>
            </trkpt>
            <trkpt lon="99.974513" lat="12.521582">
                <ele>3.982666</ele>
                <time>2005-03-27T05:30:08Z</time>
            </trkpt>
            <trkpt lon="99.974599" lat="12.521517">
                <ele>3.501953</ele>
                <time>2005-03-27T05:30:13Z</time>
            </trkpt>
            <trkpt lon="99.975007" lat="12.520831">
                <ele>3.021240</ele>
                <time>2005-03-27T05:30:30Z</time>
            </trkpt>
            <trkpt lon="99.975522" lat="12.520144">
                <ele>3.021240</ele>
                <time>2005-03-27T05:30:49Z</time>
            </trkpt>
            <trkpt lon="99.975543" lat="12.520101">
                <ele>3.021240</ele>
                <time>2005-03-27T05:30:50Z</time>
            </trkpt>
            <trkpt lon="99.975972" lat="12.519565">
                <ele>2.540649</ele>
                <time>2005-03-27T05:31:05Z</time>
            </trkpt>
            <trkpt lon="99.976487" lat="12.518899">
                <ele>3.021240</ele>
                <time>2005-03-27T05:31:24Z</time>
            </trkpt>
            <trkpt lon="99.977024" lat="12.518256">
                <ele>2.060059</ele>
                <time>2005-03-27T05:31:45Z</time>
            </trkpt>
            <trkpt lon="99.977281" lat="12.517912">
                <ele>3.021240</ele>
                <time>2005-03-27T05:31:57Z</time>
            </trkpt>
            <trkpt lon="99.977646" lat="12.518148">
                <ele>3.982666</ele>
                <time>2005-03-27T05:32:10Z</time>
            </trkpt>
            <trkpt lon="99.977903" lat="12.518342">
                <ele>3.982666</ele>
                <time>2005-03-27T05:32:25Z</time>
            </trkpt>
            <trkpt lon="99.978032" lat="12.518449">
                <ele>3.982666</ele>
                <time>2005-03-27T05:32:38Z</time>
            </trkpt>
            <trkpt lon="99.978054" lat="12.518513">
                <ele>3.021240</ele>
                <time>2005-03-27T05:32:44Z</time>
            </trkpt>
            <trkpt lon="99.977989" lat="12.518771">
                <ele>2.540649</ele>
                <time>2005-03-27T05:33:00Z</time>
            </trkpt>
            <trkpt lon="99.977474" lat="12.519479">
                <ele>1.579346</ele>
                <time>2005-03-27T05:33:18Z</time>
            </trkpt>
            <trkpt lon="99.976981" lat="12.520208">
                <ele>1.098633</ele>
                <time>2005-03-27T05:33:34Z</time>
            </trkpt>
            <trkpt lon="99.976294" lat="12.521195">
                <ele>1.098633</ele>
                <time>2005-03-27T05:33:54Z</time>
            </trkpt>
            <trkpt lon="99.975500" lat="12.522483">
                <ele>0.618042</ele>
                <time>2005-03-27T05:34:18Z</time>
            </trkpt>
            <trkpt lon="99.974899" lat="12.523363">
                <ele>0.618042</ele>
                <time>2005-03-27T05:34:34Z</time>
            </trkpt>
            <trkpt lon="99.974320" lat="12.524371">
                <ele>1.098633</ele>
                <time>2005-03-27T05:34:52Z</time>
            </trkpt>
            <trkpt lon="99.973719" lat="12.525637">
                <ele>1.098633</ele>
                <time>2005-03-27T05:35:13Z</time>
            </trkpt>
            <trkpt lon="99.973032" lat="12.526925">
                <ele>1.098633</ele>
                <time>2005-03-27T05:35:34Z</time>
            </trkpt>
            <trkpt lon="99.972432" lat="12.528405">
                <ele>1.098633</ele>
                <time>2005-03-27T05:35:56Z</time>
            </trkpt>
            <trkpt lon="99.971895" lat="12.529693">
                <ele>2.060059</ele>
                <time>2005-03-27T05:36:15Z</time>
            </trkpt>
            <trkpt lon="99.971466" lat="12.530744">
                <ele>2.060059</ele>
                <time>2005-03-27T05:36:32Z</time>
            </trkpt>
            <trkpt lon="99.971058" lat="12.531881">
                <ele>2.060059</ele>
                <time>2005-03-27T05:36:50Z</time>
            </trkpt>
            <trkpt lon="99.970500" lat="12.533362">
                <ele>2.540649</ele>
                <time>2005-03-27T05:37:13Z</time>
            </trkpt>
            <trkpt lon="99.970157" lat="12.534564">
                <ele>2.060059</ele>
                <time>2005-03-27T05:37:30Z</time>
            </trkpt>
            <trkpt lon="99.969664" lat="12.536001">
                <ele>2.540649</ele>
                <time>2005-03-27T05:37:50Z</time>
            </trkpt>
            <trkpt lon="99.969299" lat="12.536902">
                <ele>2.060059</ele>
                <time>2005-03-27T05:38:03Z</time>
            </trkpt>
            <trkpt lon="99.968891" lat="12.537825">
                <ele>2.540649</ele>
                <time>2005-03-27T05:38:17Z</time>
            </trkpt>
            <trkpt lon="99.968441" lat="12.539027">
                <ele>2.060059</ele>
                <time>2005-03-27T05:38:35Z</time>
            </trkpt>
            <trkpt lon="99.968011" lat="12.540164">
                <ele>2.540649</ele>
                <time>2005-03-27T05:38:54Z</time>
            </trkpt>
            <trkpt lon="99.967647" lat="12.541280">
                <ele>3.021240</ele>
                <time>2005-03-27T05:39:12Z</time>
            </trkpt>
            <trkpt lon="99.967260" lat="12.542589">
                <ele>3.021240</ele>
                <time>2005-03-27T05:39:33Z</time>
            </trkpt>
            <trkpt lon="99.966981" lat="12.543511">
                <ele>3.021240</ele>
                <time>2005-03-27T05:39:47Z</time>
            </trkpt>
            <trkpt lon="99.966896" lat="12.544198">
                <ele>3.021240</ele>
                <time>2005-03-27T05:39:59Z</time>
            </trkpt>
            <trkpt lon="99.966638" lat="12.545035">
                <ele>3.021240</ele>
                <time>2005-03-27T05:40:15Z</time>
            </trkpt>
            <trkpt lon="99.966531" lat="12.545528">
                <ele>2.540649</ele>
                <time>2005-03-27T05:40:25Z</time>
            </trkpt>
            <trkpt lon="99.966424" lat="12.545528">
                <ele>2.060059</ele>
                <time>2005-03-27T05:40:30Z</time>
            </trkpt>
            <trkpt lon="99.966230" lat="12.545700">
                <ele>1.579346</ele>
                <time>2005-03-27T05:40:41Z</time>
            </trkpt>
            <trkpt lon="99.966059" lat="12.546473">
                <ele>2.540649</ele>
                <time>2005-03-27T05:40:59Z</time>
            </trkpt>
            <trkpt lon="99.965780" lat="12.547481">
                <ele>3.021240</ele>
                <time>2005-03-27T05:41:18Z</time>
            </trkpt>
            <trkpt lon="99.965715" lat="12.547739">
                <ele>3.021240</ele>
                <time>2005-03-27T05:41:24Z</time>
            </trkpt>
            <trkpt lon="99.965501" lat="12.548597">
                <ele>3.021240</ele>
                <time>2005-03-27T05:41:42Z</time>
            </trkpt>
            <trkpt lon="99.965286" lat="12.549562">
                <ele>3.021240</ele>
                <time>2005-03-27T05:42:01Z</time>
            </trkpt>
            <trkpt lon="99.965007" lat="12.550678">
                <ele>3.501953</ele>
                <time>2005-03-27T05:42:23Z</time>
            </trkpt>
            <trkpt lon="99.964728" lat="12.551773">
                <ele>3.501953</ele>
                <time>2005-03-27T05:42:43Z</time>
            </trkpt>
            <trkpt lon="99.964600" lat="12.552781">
                <ele>3.501953</ele>
                <time>2005-03-27T05:43:01Z</time>
            </trkpt>
            <trkpt lon="99.964449" lat="12.553833">
                <ele>3.501953</ele>
                <time>2005-03-27T05:43:20Z</time>
            </trkpt>
            <trkpt lon="99.964321" lat="12.554798">
                <ele>3.501953</ele>
                <time>2005-03-27T05:43:39Z</time>
            </trkpt>
            <trkpt lon="99.964192" lat="12.555828">
                <ele>3.982666</ele>
                <time>2005-03-27T05:43:59Z</time>
            </trkpt>
            <trkpt lon="99.964085" lat="12.556837">
                <ele>4.463257</ele>
                <time>2005-03-27T05:44:18Z</time>
            </trkpt>
            <trkpt lon="99.963956" lat="12.557888">
                <ele>4.463257</ele>
                <time>2005-03-27T05:44:39Z</time>
            </trkpt>
            <trkpt lon="99.963827" lat="12.558746">
                <ele>3.982666</ele>
                <time>2005-03-27T05:44:56Z</time>
            </trkpt>
            <trkpt lon="99.963741" lat="12.559755">
                <ele>4.463257</ele>
                <time>2005-03-27T05:45:17Z</time>
            </trkpt>
            <trkpt lon="99.963741" lat="12.559841">
                <ele>4.943848</ele>
                <time>2005-03-27T05:45:19Z</time>
            </trkpt>
            <trkpt lon="99.963677" lat="12.560656">
                <ele>4.463257</ele>
                <time>2005-03-27T05:45:38Z</time>
            </trkpt>
            <trkpt lon="99.963613" lat="12.561557">
                <ele>4.463257</ele>
                <time>2005-03-27T05:45:59Z</time>
            </trkpt>
            <trkpt lon="99.963548" lat="12.562137">
                <ele>4.463257</ele>
                <time>2005-03-27T05:46:12Z</time>
            </trkpt>
            <trkpt lon="99.963462" lat="12.562931">
                <ele>4.463257</ele>
                <time>2005-03-27T05:46:31Z</time>
            </trkpt>
            <trkpt lon="99.963419" lat="12.563231">
                <ele>4.463257</ele>
                <time>2005-03-27T05:46:39Z</time>
            </trkpt>
            <trkpt lon="99.963377" lat="12.564175">
                <ele>4.943848</ele>
                <time>2005-03-27T05:47:01Z</time>
            </trkpt>
            <trkpt lon="99.963334" lat="12.564969">
                <ele>5.424561</ele>
                <time>2005-03-27T05:47:22Z</time>
            </trkpt>
            <trkpt lon="99.963355" lat="12.565677">
                <ele>6.385864</ele>
                <time>2005-03-27T05:47:40Z</time>
            </trkpt>
            <trkpt lon="99.963462" lat="12.566514">
                <ele>5.905273</ele>
                <time>2005-03-27T05:48:03Z</time>
            </trkpt>
            <trkpt lon="99.963355" lat="12.567008">
                <ele>5.905273</ele>
                <time>2005-03-27T05:48:20Z</time>
            </trkpt>
            <trkpt lon="99.963312" lat="12.567565">
                <ele>6.385864</ele>
                <time>2005-03-27T05:48:37Z</time>
            </trkpt>
            <trkpt lon="99.963441" lat="12.568338">
                <ele>4.943848</ele>
                <time>2005-03-27T05:48:56Z</time>
            </trkpt>
            <trkpt lon="99.963441" lat="12.568767">
                <ele>3.982666</ele>
                <time>2005-03-27T05:49:08Z</time>
            </trkpt>
            <trkpt lon="99.963162" lat="12.569261">
                <ele>3.501953</ele>
                <time>2005-03-27T05:49:23Z</time>
            </trkpt>
            <trkpt lon="99.962840" lat="12.569540">
                <ele>3.501953</ele>
                <time>2005-03-27T05:49:36Z</time>
            </trkpt>
            <trkpt lon="99.962711" lat="12.569540">
                <ele>4.943848</ele>
                <time>2005-03-27T05:49:47Z</time>
            </trkpt>
            <trkpt lon="99.962604" lat="12.569475">
                <ele>4.943848</ele>
                <time>2005-03-27T05:50:00Z</time>
            </trkpt>
            <trkpt lon="99.962325" lat="12.569432">
                <ele>7.347168</ele>
                <time>2005-03-27T05:50:25Z</time>
            </trkpt>
            <trkpt lon="99.961939" lat="12.569325">
                <ele>8.789185</ele>
                <time>2005-03-27T05:50:47Z</time>
            </trkpt>
            <trkpt lon="99.961402" lat="12.569175">
                <ele>9.750610</ele>
                <time>2005-03-27T05:51:09Z</time>
            </trkpt>
            <trkpt lon="99.960372" lat="12.568939">
                <ele>11.673218</ele>
                <time>2005-03-27T05:51:35Z</time>
            </trkpt>
            <trkpt lon="99.960051" lat="12.568874">
                <ele>10.711792</ele>
                <time>2005-03-27T05:51:42Z</time>
            </trkpt>
            <trkpt lon="99.959922" lat="12.568595">
                <ele>9.750610</ele>
                <time>2005-03-27T05:51:51Z</time>
            </trkpt>
            <trkpt lon="99.960115" lat="12.567544">
                <ele>7.827881</ele>
                <time>2005-03-27T05:52:14Z</time>
            </trkpt>
            <trkpt lon="99.960201" lat="12.566965">
                <ele>6.866455</ele>
                <time>2005-03-27T05:52:26Z</time>
            </trkpt>
            <trkpt lon="99.959943" lat="12.566063">
                <ele>7.347168</ele>
                <time>2005-03-27T05:52:46Z</time>
            </trkpt>
            <trkpt lon="99.959707" lat="12.565677">
                <ele>6.866455</ele>
                <time>2005-03-27T05:52:55Z</time>
            </trkpt>
            <trkpt lon="99.959686" lat="12.565591">
                <ele>6.385864</ele>
                <time>2005-03-27T05:52:57Z</time>
            </trkpt>
            <trkpt lon="99.959686" lat="12.564905">
                <ele>5.905273</ele>
                <time>2005-03-27T05:53:13Z</time>
            </trkpt>
            <trkpt lon="99.959686" lat="12.564819">
                <ele>5.905273</ele>
                <time>2005-03-27T05:53:15Z</time>
            </trkpt>
            <trkpt lon="99.959686" lat="12.564561">
                <ele>5.905273</ele>
                <time>2005-03-27T05:53:21Z</time>
            </trkpt>
            <trkpt lon="99.959900" lat="12.563982">
                <ele>5.905273</ele>
                <time>2005-03-27T05:53:36Z</time>
            </trkpt>
            <trkpt lon="99.959900" lat="12.563832">
                <ele>5.905273</ele>
                <time>2005-03-27T05:53:39Z</time>
            </trkpt>
            <trkpt lon="99.959879" lat="12.563467">
                <ele>5.905273</ele>
                <time>2005-03-27T05:53:47Z</time>
            </trkpt>
            <trkpt lon="99.959836" lat="12.563274">
                <ele>5.905273</ele>
                <time>2005-03-27T05:53:51Z</time>
            </trkpt>
            <trkpt lon="99.959686" lat="12.563210">
                <ele>5.905273</ele>
                <time>2005-03-27T05:53:55Z</time>
            </trkpt>
            <trkpt lon="99.958978" lat="12.563016">
                <ele>7.827881</ele>
                <time>2005-03-27T05:54:12Z</time>
            </trkpt>
            <trkpt lon="99.958184" lat="12.562802">
                <ele>9.269897</ele>
                <time>2005-03-27T05:54:32Z</time>
            </trkpt>
            <trkpt lon="99.958141" lat="12.562802">
                <ele>9.269897</ele>
                <time>2005-03-27T05:54:33Z</time>
            </trkpt>
            <trkpt lon="99.958141" lat="12.562716">
                <ele>9.269897</ele>
                <time>2005-03-27T05:54:37Z</time>
            </trkpt>
            <trkpt lon="99.958205" lat="12.562609">
                <ele>8.789185</ele>
                <time>2005-03-27T05:54:44Z</time>
            </trkpt>
        </trkseg>
    </trk>
</gpx>